Terminal Aerodrome Forecast
Issued by NWS

Home | Current Version | Previous Version | Text Only | Print | Product List | Glossary On
Versions: 1 2 3 4 5 6 7 8 9 10 11 12 13
000
FTUS44 KSJT 050520
TAFBBD
TAF
KBBD 050520Z 0506/0606 13006KT P6SM SKC
     FM051200 16005KT P6SM SCT015
      TEMPO 0513/0515 BKN015
     FM051530 16007KT P6SM FEW025
     FM051700 16008KT P6SM SCT050=

USA.gov is the U.S. government's official web portal to all federal, state and local government web resources and services.